sensor_id;sensor_type;location;lat;lon;timestamp;P1;durP1;ratioP1;P2;durP2;ratioP2
28373;SDS011;15616;40.148;-102.718;2023-03-01T00:02:06;8.23;;;2.45;;
28373;SDS011;15616;40.148;-102.718;2023-03-01T00:04:32;14.32;;;2.40;;
28373;SDS011;15616;40.148;-102.718;2023-03-01T00:06:58;9.15;;;2.50;;
28373;SDS011;15616;40.148;-102.718;2023-03-01T00:09:23;9.80;;;2.22;;
28373;SDS011;15616;40.148;-102.718;2023-03-01T00:11:49;9.07;;;2.17;;
28373;SDS011;15616;40.148;-102.718;2023-03-01T00:14:15;11.05;;;2.35;;
28373;SDS011;15616;40.148;-102.718;2023-03-01T00:16:43;12.65;;;2.65;;
28373;SDS011;15616;40.148;-102.718;2023-03-01T00:19:11;9.13;;;2.42;;
28373;SDS011;15616;40.148;-102.718;2023-03-01T00:21:39;7.55;;;2.05;;
28373;SDS011;15616;40.148;-102.718;2023-03-01T00:24:05;12.48;;;2.70;;
28373;SDS011;15616;40.148;-102.718;2023-03-01T00:26:31;9.85;;;2.65;;
28373;SDS011;15616;40.148;-102.718;2023-03-01T00:28:58;12.30;;;2.22;;
28373;SDS011;15616;40.148;-102.718;2023-03-01T00:31:25;9.90;;;2.33;;
28373;SDS011;15616;40.148;-102.718;2023-03-01T00:33:58;11.35;;;2.35;;
28373;SDS011;15616;40.148;-102.718;2023-03-01T00:36:27;10.70;;;2.83;;
28373;SDS011;15616;40.148;-102.718;2023-03-01T00:38:54;7.70;;;2.33;;
28373;SDS011;15616;40.148;-102.718;2023-03-01T00:41:21;10.57;;;2.78;;
28373;SDS011;15616;40.148;-102.718;2023-03-01T00:43:48;6.93;;;2.00;;
28373;SDS011;15616;40.148;-102.718;2023-03-01T00:46:15;8.48;;;2.42;;
28373;SDS011;15616;40.148;-102.718;2023-03-01T00:48:44;9.13;;;2.25;;
28373;SDS011;15616;40.148;-102.718;2023-03-01T00:51:15;8.73;;;2.40;;
28373;SDS011;15616;40.148;-102.718;2023-03-01T00:53:43;11.25;;;2.72;;
28373;SDS011;15616;40.148;-102.718;2023-03-01T00:56:11;7.72;;;2.13;;
28373;SDS011;15616;40.148;-102.718;2023-03-01T00:58:38;8.30;;;2.30;;
28373;SDS011;15616;40.148;-102.718;2023-03-01T01:01:11;9.07;;;2.63;;
28373;SDS011;15616;40.148;-102.718;2023-03-01T01:03:46;7.90;;;2.50;;
28373;SDS011;15616;40.148;-102.718;2023-03-01T01:06:19;6.60;;;2.00;;
28373;SDS011;15616;40.148;-102.718;2023-03-01T01:08:47;11.77;;;2.10;;
28373;SDS011;15616;40.148;-102.718;2023-03-01T01:11:14;10.10;;;2.17;;
28373;SDS011;15616;40.148;-102.718;2023-03-01T01:13:40;10.52;;;2.45;;
28373;SDS011;15616;40.148;-102.718;2023-03-01T01:16:07;7.00;;;2.13;;
28373;SDS011;15616;40.148;-102.718;2023-03-01T01:18:33;10.57;;;2.15;;
28373;SDS011;15616;40.148;-102.718;2023-03-01T01:21:06;8.00;;;2.30;;
28373;SDS011;15616;40.148;-102.718;2023-03-01T01:23:35;7.03;;;2.15;;
28373;SDS011;15616;40.148;-102.718;2023-03-01T01:26:06;8.95;;;2.03;;
28373;SDS011;15616;40.148;-102.718;2023-03-01T01:28:33;8.57;;;2.28;;
28373;SDS011;15616;40.148;-102.718;2023-03-01T01:31:00;10.07;;;2.20;;
28373;SDS011;15616;40.148;-102.718;2023-03-01T01:33:26;12.90;;;2.33;;
28373;SDS011;15616;40.148;-102.718;2023-03-01T01:35:52;8.63;;;2.00;;
28373;SDS011;15616;40.148;-102.718;2023-03-01T01:38:18;8.95;;;2.58;;
28373;SDS011;15616;40.148;-102.718;2023-03-01T01:40:45;9.40;;;2.42;;
28373;SDS011;15616;40.148;-102.718;2023-03-01T01:43:16;7.38;;;2.50;;
28373;SDS011;15616;40.148;-102.718;2023-03-01T01:45:48;8.70;;;2.70;;
28373;SDS011;15616;40.148;-102.718;2023-03-01T01:48:19;7.55;;;1.98;;
28373;SDS011;15616;40.148;-102.718;2023-03-01T01:50:50;7.60;;;2.40;;
28373;SDS011;15616;40.148;-102.718;2023-03-01T01:53:24;8.82;;;2.30;;
28373;SDS011;15616;40.148;-102.718;2023-03-01T01:55:52;8.50;;;2.00;;
28373;SDS011;15616;40.148;-102.718;2023-03-01T01:58:22;6.90;;;2.28;;
28373;SDS011;15616;40.148;-102.718;2023-03-01T02:00:52;9.85;;;2.20;;
28373;SDS011;15616;40.148;-102.718;2023-03-01T02:03:20;10.23;;;2.38;;
28373;SDS011;15616;40.148;-102.718;2023-03-01T02:05:58;9.15;;;2.35;;
28373;SDS011;15616;40.148;-102.718;2023-03-01T02:08:44;7.35;;;1.95;;
28373;SDS011;15616;40.148;-102.718;2023-03-01T02:11:12;9.25;;;2.30;;
28373;SDS011;15616;40.148;-102.718;2023-03-01T02:13:40;7.70;;;2.28;;
28373;SDS011;15616;40.148;-102.718;2023-03-01T02:16:10;11.13;;;2.38;;
28373;SDS011;15616;40.148;-102.718;2023-03-01T02:18:39;5.38;;;1.85;;
28373;SDS011;15616;40.148;-102.718;2023-03-01T02:28:58;10.57;;;2.17;;
28373;SDS011;15616;40.148;-102.718;2023-03-01T02:31:24;6.95;;;1.83;;
28373;SDS011;15616;40.148;-102.718;2023-03-01T02:34:11;9.10;;;2.27;;
28373;SDS011;15616;40.148;-102.718;2023-03-01T02:36:44;13.82;;;2.40;;
28373;SDS011;15616;40.148;-102.718;2023-03-01T02:39:31;7.75;;;2.65;;
28373;SDS011;15616;40.148;-102.718;2023-03-01T02:42:01;8.13;;;2.33;;
28373;SDS011;15616;40.148;-102.718;2023-03-01T02:44:29;6.32;;;1.83;;
28373;SDS011;15616;40.148;-102.718;2023-03-01T02:46:55;7.28;;;1.80;;
28373;SDS011;15616;40.148;-102.718;2023-03-01T02:54:51;6.70;;;2.08;;
28373;SDS011;15616;40.148;-102.718;2023-03-01T02:57:23;7.72;;;2.20;;
28373;SDS011;15616;40.148;-102.718;2023-03-01T02:59:52;6.68;;;2.03;;
28373;SDS011;15616;40.148;-102.718;2023-03-01T03:02:25;7.63;;;2.00;;
28373;SDS011;15616;40.148;-102.718;2023-03-01T03:05:06;7.43;;;2.30;;
28373;SDS011;15616;40.148;-102.718;2023-03-01T03:07:35;6.90;;;1.70;;
28373;SDS011;15616;40.148;-102.718;2023-03-01T03:10:03;4.63;;;2.05;;
28373;SDS011;15616;40.148;-102.718;2023-03-01T03:12:31;6.70;;;2.15;;
28373;SDS011;15616;40.148;-102.718;2023-03-01T03:14:57;8.50;;;2.45;;
28373;SDS011;15616;40.148;-102.718;2023-03-01T03:17:23;9.90;;;2.33;;
28373;SDS011;15616;40.148;-102.718;2023-03-01T03:19:49;7.07;;;2.28;;
28373;SDS011;15616;40.148;-102.718;2023-03-01T03:22:15;6.68;;;1.80;;
28373;SDS011;15616;40.148;-102.718;2023-03-01T03:24:40;7.03;;;1.77;;
28373;SDS011;15616;40.148;-102.718;2023-03-01T03:27:06;9.00;;;2.17;;
28373;SDS011;15616;40.148;-102.718;2023-03-01T03:29:33;8.80;;;2.15;;
28373;SDS011;15616;40.148;-102.718;2023-03-01T03:31:59;11.38;;;2.78;;
28373;SDS011;15616;40.148;-102.718;2023-03-01T03:34:25;8.35;;;2.33;;
28373;SDS011;15616;40.148;-102.718;2023-03-01T03:36:54;11.45;;;1.95;;
28373;SDS011;15616;40.148;-102.718;2023-03-01T03:39:22;7.65;;;2.08;;
28373;SDS011;15616;40.148;-102.718;2023-03-01T03:41:48;8.63;;;2.13;;
28373;SDS011;15616;40.148;-102.718;2023-03-01T03:44:14;4.97;;;1.85;;
28373;SDS011;15616;40.148;-102.718;2023-03-01T03:46:40;8.68;;;2.10;;
28373;SDS011;15616;40.148;-102.718;2023-03-01T03:49:06;9.77;;;1.92;;
28373;SDS011;15616;40.148;-102.718;2023-03-01T03:51:32;8.82;;;2.03;;
28373;SDS011;15616;40.148;-102.718;2023-03-01T03:53:57;7.50;;;2.08;;
28373;SDS011;15616;40.148;-102.718;2023-03-01T03:56:23;7.07;;;2.08;;
28373;SDS011;15616;40.148;-102.718;2023-03-01T03:58:51;6.65;;;2.10;;
28373;SDS011;15616;40.148;-102.718;2023-03-01T04:01:17;10.55;;;1.95;;
28373;SDS011;15616;40.148;-102.718;2023-03-01T04:03:43;6.18;;;1.92;;
28373;SDS011;15616;40.148;-102.718;2023-03-01T04:06:12;7.85;;;1.92;;
28373;SDS011;15616;40.148;-102.718;2023-03-01T04:08:39;4.10;;;1.70;;
28373;SDS011;15616;40.148;-102.718;2023-03-01T04:11:06;8.50;;;2.17;;
28373;SDS011;15616;40.148;-102.718;2023-03-01T04:13:51;6.65;;;1.98;;
28373;SDS011;15616;40.148;-102.718;2023-03-01T04:16:18;7.93;;;2.10;;
28373;SDS011;15616;40.148;-102.718;2023-03-01T04:18:45;9.75;;;1.80;;
28373;SDS011;15616;40.148;-102.718;2023-03-01T04:21:10;8.55;;;2.10;;
28373;SDS011;15616;40.148;-102.718;2023-03-01T04:23:37;6.80;;;1.85;;
28373;SDS011;15616;40.148;-102.718;2023-03-01T04:26:03;11.15;;;2.35;;
28373;SDS011;15616;40.148;-102.718;2023-03-01T04:31:10;7.18;;;1.77;;
28373;SDS011;15616;40.148;-102.718;2023-03-01T04:33:45;10.18;;;2.25;;
28373;SDS011;15616;40.148;-102.718;2023-03-01T04:38:39;5.15;;;1.80;;
28373;SDS011;15616;40.148;-102.718;2023-03-01T04:41:06;6.97;;;1.80;;
28373;SDS011;15616;40.148;-102.718;2023-03-01T04:43:33;6.10;;;1.67;;
28373;SDS011;15616;40.148;-102.718;2023-03-01T04:46:00;5.97;;;1.90;;
28373;SDS011;15616;40.148;-102.718;2023-03-01T04:48:37;5.47;;;1.75;;
28373;SDS011;15616;40.148;-102.718;2023-03-01T04:51:04;7.05;;;1.83;;
28373;SDS011;15616;40.148;-102.718;2023-03-01T04:53:31;5.28;;;1.75;;
28373;SDS011;15616;40.148;-102.718;2023-03-01T04:55:58;6.85;;;1.90;;
28373;SDS011;15616;40.148;-102.718;2023-03-01T04:58:27;6.32;;;2.03;;
28373;SDS011;15616;40.148;-102.718;2023-03-01T05:00:54;9.05;;;2.13;;
28373;SDS011;15616;40.148;-102.718;2023-03-01T05:03:20;5.45;;;1.92;;
28373;SDS011;15616;40.148;-102.718;2023-03-01T05:05:47;6.57;;;1.85;;
28373;SDS011;15616;40.148;-102.718;2023-03-01T05:08:14;6.35;;;1.90;;
28373;SDS011;15616;40.148;-102.718;2023-03-01T05:10:48;5.60;;;1.80;;
28373;SDS011;15616;40.148;-102.718;2023-03-01T05:13:16;7.10;;;2.00;;
28373;SDS011;15616;40.148;-102.718;2023-03-01T05:15:55;5.22;;;1.80;;
28373;SDS011;15616;40.148;-102.718;2023-03-01T05:18:23;9.35;;;1.73;;
28373;SDS011;15616;40.148;-102.718;2023-03-01T05:20:54;10.90;;;1.92;;
28373;SDS011;15616;40.148;-102.718;2023-03-01T05:23:23;8.57;;;2.30;;
28373;SDS011;15616;40.148;-102.718;2023-03-01T05:25:50;16.23;;;2.05;;
28373;SDS011;15616;40.148;-102.718;2023-03-01T05:28:17;5.32;;;1.63;;
28373;SDS011;15616;40.148;-102.718;2023-03-01T05:30:45;8.52;;;2.28;;
28373;SDS011;15616;40.148;-102.718;2023-03-01T05:33:11;4.38;;;1.67;;
28373;SDS011;15616;40.148;-102.718;2023-03-01T05:35:41;6.65;;;2.00;;
28373;SDS011;15616;40.148;-102.718;2023-03-01T05:38:08;10.55;;;2.25;;
28373;SDS011;15616;40.148;-102.718;2023-03-01T05:40:38;7.20;;;1.70;;
28373;SDS011;15616;40.148;-102.718;2023-03-01T05:43:06;7.63;;;1.90;;
28373;SDS011;15616;40.148;-102.718;2023-03-01T05:45:32;5.47;;;2.05;;
28373;SDS011;15616;40.148;-102.718;2023-03-01T05:47:58;9.13;;;1.70;;
28373;SDS011;15616;40.148;-102.718;2023-03-01T05:50:25;10.77;;;1.98;;
28373;SDS011;15616;40.148;-102.718;2023-03-01T05:53:00;8.65;;;2.00;;
28373;SDS011;15616;40.148;-102.718;2023-03-01T05:55:28;10.50;;;2.15;;
28373;SDS011;15616;40.148;-102.718;2023-03-01T05:57:58;5.28;;;1.95;;
28373;SDS011;15616;40.148;-102.718;2023-03-01T06:00:25;11.02;;;2.08;;
28373;SDS011;15616;40.148;-102.718;2023-03-01T06:02:51;7.88;;;2.08;;
28373;SDS011;15616;40.148;-102.718;2023-03-01T06:05:19;5.07;;;1.55;;
28373;SDS011;15616;40.148;-102.718;2023-03-01T06:07:45;9.82;;;2.00;;
28373;SDS011;15616;40.148;-102.718;2023-03-01T06:10:11;11.38;;;2.28;;
28373;SDS011;15616;40.148;-102.718;2023-03-01T06:12:40;12.32;;;1.73;;
28373;SDS011;15616;40.148;-102.718;2023-03-01T06:15:07;8.43;;;2.10;;
28373;SDS011;15616;40.148;-102.718;2023-03-01T06:17:35;10.77;;;2.00;;
28373;SDS011;15616;40.148;-102.718;2023-03-01T06:20:03;17.77;;;2.55;;
28373;SDS011;15616;40.148;-102.718;2023-03-01T06:22:31;15.18;;;2.97;;
28373;SDS011;15616;40.148;-102.718;2023-03-01T06:24:57;24.05;;;2.63;;
28373;SDS011;15616;40.148;-102.718;2023-03-01T06:27:22;16.25;;;3.00;;
28373;SDS011;15616;40.148;-102.718;2023-03-01T06:29:48;11.80;;;2.25;;
28373;SDS011;15616;40.148;-102.718;2023-03-01T06:32:14;30.67;;;3.30;;
28373;SDS011;15616;40.148;-102.718;2023-03-01T06:34:40;36.03;;;3.08;;
28373;SDS011;15616;40.148;-102.718;2023-03-01T06:37:06;14.18;;;3.03;;
28373;SDS011;15616;40.148;-102.718;2023-03-01T06:39:33;21.25;;;2.83;;
28373;SDS011;15616;40.148;-102.718;2023-03-01T06:41:59;13.32;;;2.70;;
28373;SDS011;15616;40.148;-102.718;2023-03-01T06:44:25;12.63;;;2.38;;
28373;SDS011;15616;40.148;-102.718;2023-03-01T06:46:51;18.92;;;2.20;;
28373;SDS011;15616;40.148;-102.718;2023-03-01T06:49:17;21.38;;;2.88;;
28373;SDS011;15616;40.148;-102.718;2023-03-01T06:51:45;11.05;;;2.10;;
28373;SDS011;15616;40.148;-102.718;2023-03-01T06:54:11;11.20;;;2.03;;
28373;SDS011;15616;40.148;-102.718;2023-03-01T06:56:37;11.40;;;2.38;;
28373;SDS011;15616;40.148;-102.718;2023-03-01T06:59:04;14.20;;;2.47;;
28373;SDS011;15616;40.148;-102.718;2023-03-01T07:01:30;8.15;;;1.88;;
28373;SDS011;15616;40.148;-102.718;2023-03-01T07:03:56;7.63;;;1.90;;
28373;SDS011;15616;40.148;-102.718;2023-03-01T07:06:23;10.93;;;2.42;;
28373;SDS011;15616;40.148;-102.718;2023-03-01T07:08:49;17.08;;;2.47;;
28373;SDS011;15616;40.148;-102.718;2023-03-01T07:11:15;12.85;;;2.53;;
28373;SDS011;15616;40.148;-102.718;2023-03-01T07:13:41;20.33;;;2.92;;
28373;SDS011;15616;40.148;-102.718;2023-03-01T07:16:07;21.92;;;3.33;;
28373;SDS011;15616;40.148;-102.718;2023-03-01T07:18:33;29.35;;;3.40;;
28373;SDS011;15616;40.148;-102.718;2023-03-01T07:21:08;30.10;;;3.58;;
28373;SDS011;15616;40.148;-102.718;2023-03-01T07:23:37;32.13;;;3.70;;
28373;SDS011;15616;40.148;-102.718;2023-03-01T07:26:03;23.17;;;3.22;;
28373;SDS011;15616;40.148;-102.718;2023-03-01T07:28:29;33.90;;;3.53;;
28373;SDS011;15616;40.148;-102.718;2023-03-01T07:31:00;34.63;;;3.83;;
28373;SDS011;15616;40.148;-102.718;2023-03-01T07:33:28;24.33;;;3.60;;
28373;SDS011;15616;40.148;-102.718;2023-03-01T07:35:58;19.70;;;2.85;;
28373;SDS011;15616;40.148;-102.718;2023-03-01T07:38:25;24.55;;;3.45;;
28373;SDS011;15616;40.148;-102.718;2023-03-01T07:40:52;27.17;;;3.08;;
28373;SDS011;15616;40.148;-102.718;2023-03-01T07:43:18;33.05;;;3.92;;
28373;SDS011;15616;40.148;-102.718;2023-03-01T07:45:45;27.95;;;3.72;;
28373;SDS011;15616;40.148;-102.718;2023-03-01T07:48:11;35.08;;;2.70;;
28373;SDS011;15616;40.148;-102.718;2023-03-01T07:50:37;41.25;;;3.67;;
28373;SDS011;15616;40.148;-102.718;2023-03-01T07:53:03;31.00;;;3.33;;
28373;SDS011;15616;40.148;-102.718;2023-03-01T07:55:29;26.60;;;3.00;;
28373;SDS011;15616;40.148;-102.718;2023-03-01T07:57:55;68.85;;;5.28;;
28373;SDS011;15616;40.148;-102.718;2023-03-01T08:00:21;32.83;;;3.83;;
28373;SDS011;15616;40.148;-102.718;2023-03-01T08:02:47;41.78;;;3.90;;
28373;SDS011;15616;40.148;-102.718;2023-03-01T08:05:13;27.00;;;3.60;;
28373;SDS011;15616;40.148;-102.718;2023-03-01T08:07:39;26.85;;;3.28;;
28373;SDS011;15616;40.148;-102.718;2023-03-01T08:10:05;28.20;;;3.22;;
28373;SDS011;15616;40.148;-102.718;2023-03-01T08:12:32;27.58;;;3.38;;
28373;SDS011;15616;40.148;-102.718;2023-03-01T08:14:57;29.83;;;3.50;;
28373;SDS011;15616;40.148;-102.718;2023-03-01T08:17:23;26.67;;;3.05;;
28373;SDS011;15616;40.148;-102.718;2023-03-01T08:19:49;21.42;;;2.70;;
28373;SDS011;15616;40.148;-102.718;2023-03-01T08:22:15;18.63;;;2.42;;
28373;SDS011;15616;40.148;-102.718;2023-03-01T08:24:41;19.30;;;2.97;;
28373;SDS011;15616;40.148;-102.718;2023-03-01T08:27:07;20.45;;;2.35;;
28373;SDS011;15616;40.148;-102.718;2023-03-01T08:29:33;15.27;;;2.28;;
28373;SDS011;15616;40.148;-102.718;2023-03-01T08:31:59;17.08;;;3.03;;
28373;SDS011;15616;40.148;-102.718;2023-03-01T08:34:25;21.95;;;2.92;;
28373;SDS011;15616;40.148;-102.718;2023-03-01T08:36:52;20.88;;;3.10;;
28373;SDS011;15616;40.148;-102.718;2023-03-01T08:39:19;24.15;;;3.03;;
28373;SDS011;15616;40.148;-102.718;2023-03-01T08:41:46;25.10;;;3.25;;
28373;SDS011;15616;40.148;-102.718;2023-03-01T08:44:12;31.20;;;3.05;;
28373;SDS011;15616;40.148;-102.718;2023-03-01T08:46:41;35.00;;;4.65;;
28373;SDS011;15616;40.148;-102.718;2023-03-01T08:49:12;37.35;;;4.47;;
28373;SDS011;15616;40.148;-102.718;2023-03-01T08:51:40;50.83;;;4.95;;
28373;SDS011;15616;40.148;-102.718;2023-03-01T08:54:07;53.90;;;4.78;;
28373;SDS011;15616;40.148;-102.718;2023-03-01T08:56:36;52.13;;;4.60;;
28373;SDS011;15616;40.148;-102.718;2023-03-01T08:59:02;50.20;;;4.70;;
28373;SDS011;15616;40.148;-102.718;2023-03-01T09:01:29;41.90;;;4.55;;
28373;SDS011;15616;40.148;-102.718;2023-03-01T09:03:55;51.47;;;4.50;;
28373;SDS011;15616;40.148;-102.718;2023-03-01T09:06:21;47.05;;;3.95;;
28373;SDS011;15616;40.148;-102.718;2023-03-01T09:08:48;48.35;;;3.90;;
28373;SDS011;15616;40.148;-102.718;2023-03-01T09:11:16;42.53;;;3.70;;
28373;SDS011;15616;40.148;-102.718;2023-03-01T09:13:45;58.70;;;4.25;;
28373;SDS011;15616;40.148;-102.718;2023-03-01T09:16:12;43.30;;;3.90;;
28373;SDS011;15616;40.148;-102.718;2023-03-01T09:18:42;43.72;;;4.43;;
28373;SDS011;15616;40.148;-102.718;2023-03-01T09:21:10;30.73;;;4.00;;
28373;SDS011;15616;40.148;-102.718;2023-03-01T09:23:39;29.50;;;3.65;;
28373;SDS011;15616;40.148;-102.718;2023-03-01T09:26:07;46.50;;;3.80;;
28373;SDS011;15616;40.148;-102.718;2023-03-01T09:28:35;35.17;;;3.65;;
28373;SDS011;15616;40.148;-102.718;2023-03-01T09:31:02;57.65;;;5.43;;
28373;SDS011;15616;40.148;-102.718;2023-03-01T09:33:29;45.10;;;5.47;;
28373;SDS011;15616;40.148;-102.718;2023-03-01T09:35:59;62.28;;;4.88;;
28373;SDS011;15616;40.148;-102.718;2023-03-01T09:38:27;41.47;;;4.47;;
28373;SDS011;15616;40.148;-102.718;2023-03-01T09:40:53;44.13;;;4.38;;
28373;SDS011;15616;40.148;-102.718;2023-03-01T09:45:52;69.35;;;5.65;;
28373;SDS011;15616;40.148;-102.718;2023-03-01T09:48:21;59.10;;;5.28;;
28373;SDS011;15616;40.148;-102.718;2023-03-01T09:50:51;59.58;;;4.82;;
28373;SDS011;15616;40.148;-102.718;2023-03-01T09:53:18;43.53;;;5.53;;
28373;SDS011;15616;40.148;-102.718;2023-03-01T09:56:05;60.00;;;5.40;;
28373;SDS011;15616;40.148;-102.718;2023-03-01T10:01:14;57.53;;;5.82;;
28373;SDS011;15616;40.148;-102.718;2023-03-01T10:03:53;48.97;;;5.18;;
28373;SDS011;15616;40.148;-102.718;2023-03-01T10:09:29;39.70;;;4.70;;
28373;SDS011;15616;40.148;-102.718;2023-03-01T10:11:59;34.00;;;5.28;;
28373;SDS011;15616;40.148;-102.718;2023-03-01T10:17:01;29.63;;;3.80;;
28373;SDS011;15616;40.148;-102.718;2023-03-01T10:19:47;31.63;;;3.75;;
28373;SDS011;15616;40.148;-102.718;2023-03-01T10:22:17;34.22;;;4.03;;
28373;SDS011;15616;40.148;-102.718;2023-03-01T10:24:50;27.35;;;3.70;;
28373;SDS011;15616;40.148;-102.718;2023-03-01T10:27:20;27.05;;;3.78;;
28373;SDS011;15616;40.148;-102.718;2023-03-01T10:32:53;33.67;;;4.22;;
28373;SDS011;15616;40.148;-102.718;2023-03-01T10:35:21;38.75;;;4.75;;
28373;SDS011;15616;40.148;-102.718;2023-03-01T10:40:31;34.80;;;4.60;;
28373;SDS011;15616;40.148;-102.718;2023-03-01T10:42:58;22.20;;;3.65;;
28373;SDS011;15616;40.148;-102.718;2023-03-01T10:48:16;29.70;;;4.20;;
28373;SDS011;15616;40.148;-102.718;2023-03-01T10:50:45;35.42;;;3.83;;
28373;SDS011;15616;40.148;-102.718;2023-03-01T10:58:32;24.65;;;3.25;;
28373;SDS011;15616;40.148;-102.718;2023-03-01T11:01:00;19.25;;;3.17;;
28373;SDS011;15616;40.148;-102.718;2023-03-01T11:03:36;33.80;;;3.42;;
28373;SDS011;15616;40.148;-102.718;2023-03-01T11:08:40;27.05;;;4.30;;
28373;SDS011;15616;40.148;-102.718;2023-03-01T11:13:35;23.80;;;2.90;;
28373;SDS011;15616;40.148;-102.718;2023-03-01T11:16:03;28.10;;;4.50;;
28373;SDS011;15616;40.148;-102.718;2023-03-01T11:18:32;34.60;;;3.95;;
28373;SDS011;15616;40.148;-102.718;2023-03-01T11:20:59;44.70;;;4.07;;
28373;SDS011;15616;40.148;-102.718;2023-03-01T11:23:28;39.92;;;3.70;;
28373;SDS011;15616;40.148;-102.718;2023-03-01T11:25:56;44.65;;;4.88;;
28373;SDS011;15616;40.148;-102.718;2023-03-01T11:28:32;46.08;;;4.18;;
28373;SDS011;15616;40.148;-102.718;2023-03-01T11:31:04;29.42;;;3.53;;
28373;SDS011;15616;40.148;-102.718;2023-03-01T11:33:39;30.17;;;3.28;;
28373;SDS011;15616;40.148;-102.718;2023-03-01T11:38:39;19.60;;;3.95;;
28373;SDS011;15616;40.148;-102.718;2023-03-01T11:41:06;16.52;;;3.70;;
28373;SDS011;15616;40.148;-102.718;2023-03-01T11:55:00;38.08;;;4.57;;
28373;SDS011;15616;40.148;-102.718;2023-03-01T12:08:20;75.07;;;5.90;;
28373;SDS011;15616;40.148;-102.718;2023-03-01T12:13:53;70.00;;;6.10;;
28373;SDS011;15616;40.148;-102.718;2023-03-01T12:16:31;50.65;;;6.32;;
28373;SDS011;15616;40.148;-102.718;2023-03-01T12:30:40;54.90;;;5.65;;
28373;SDS011;15616;40.148;-102.718;2023-03-01T12:36:25;65.60;;;6.85;;
28373;SDS011;15616;40.148;-102.718;2023-03-01T12:47:11;43.47;;;5.72;;
28373;SDS011;15616;40.148;-102.718;2023-03-01T12:49:45;44.80;;;5.07;;
28373;SDS011;15616;40.148;-102.718;2023-03-01T12:52:28;36.25;;;4.53;;
28373;SDS011;15616;40.148;-102.718;2023-03-01T12:55:08;48.97;;;5.20;;
28373;SDS011;15616;40.148;-102.718;2023-03-01T12:58:13;47.42;;;4.28;;
28373;SDS011;15616;40.148;-102.718;2023-03-01T13:10:19;26.33;;;3.97;;
28373;SDS011;15616;40.148;-102.718;2023-03-01T13:12:50;43.28;;;4.55;;
28373;SDS011;15616;40.148;-102.718;2023-03-01T13:15:27;34.05;;;3.35;;
28373;SDS011;15616;40.148;-102.718;2023-03-01T13:17:55;34.67;;;4.78;;
28373;SDS011;15616;40.148;-102.718;2023-03-01T13:20:57;39.90;;;4.47;;
28373;SDS011;15616;40.148;-102.718;2023-03-01T13:23:26;43.28;;;4.88;;
28373;SDS011;15616;40.148;-102.718;2023-03-01T13:31:08;46.88;;;4.63;;
28373;SDS011;15616;40.148;-102.718;2023-03-01T13:33:41;46.95;;;4.53;;
28373;SDS011;15616;40.148;-102.718;2023-03-01T13:36:13;55.13;;;5.43;;
28373;SDS011;15616;40.148;-102.718;2023-03-01T13:39:03;59.83;;;5.78;;
28373;SDS011;15616;40.148;-102.718;2023-03-01T13:41:52;60.40;;;5.82;;
28373;SDS011;15616;40.148;-102.718;2023-03-01T13:46:59;38.63;;;4.70;;
28373;SDS011;15616;40.148;-102.718;2023-03-01T13:49:43;26.88;;;3.83;;
28373;SDS011;15616;40.148;-102.718;2023-03-01T13:57:39;42.55;;;4.22;;
28373;SDS011;15616;40.148;-102.718;2023-03-01T14:00:23;64.55;;;5.40;;
28373;SDS011;15616;40.148;-102.718;2023-03-01T14:03:09;68.82;;;5.75;;
28373;SDS011;15616;40.148;-102.718;2023-03-01T14:05:40;55.95;;;6.30;;
28373;SDS011;15616;40.148;-102.718;2023-03-01T14:08:18;61.50;;;5.65;;
28373;SDS011;15616;40.148;-102.718;2023-03-01T14:11:09;42.83;;;5.57;;
28373;SDS011;15616;40.148;-102.718;2023-03-01T14:14:03;61.78;;;6.35;;
28373;SDS011;15616;40.148;-102.718;2023-03-01T14:19:12;74.72;;;6.93;;
28373;SDS011;15616;40.148;-102.718;2023-03-01T14:21:58;82.95;;;7.63;;
28373;SDS011;15616;40.148;-102.718;2023-03-01T14:24:49;39.35;;;5.55;;
28373;SDS011;15616;40.148;-102.718;2023-03-01T14:27:17;54.50;;;5.47;;
28373;SDS011;15616;40.148;-102.718;2023-03-01T14:29:45;62.20;;;5.97;;
28373;SDS011;15616;40.148;-102.718;2023-03-01T14:32:25;47.30;;;5.70;;
28373;SDS011;15616;40.148;-102.718;2023-03-01T14:34:53;64.38;;;7.65;;
28373;SDS011;15616;40.148;-102.718;2023-03-01T14:39:45;48.85;;;5.93;;
28373;SDS011;15616;40.148;-102.718;2023-03-01T14:42:11;61.17;;;6.45;;
28373;SDS011;15616;40.148;-102.718;2023-03-01T14:44:40;59.03;;;6.00;;
28373;SDS011;15616;40.148;-102.718;2023-03-01T14:47:16;65.07;;;5.85;;
28373;SDS011;15616;40.148;-102.718;2023-03-01T14:49:54;68.65;;;7.43;;
28373;SDS011;15616;40.148;-102.718;2023-03-01T14:52:31;107.13;;;8.55;;
28373;SDS011;15616;40.148;-102.718;2023-03-01T14:55:09;83.40;;;7.07;;
28373;SDS011;15616;40.148;-102.718;2023-03-01T14:57:51;76.05;;;7.80;;
28373;SDS011;15616;40.148;-102.718;2023-03-01T15:00:19;95.63;;;7.65;;
28373;SDS011;15616;40.148;-102.718;2023-03-01T15:02:53;52.38;;;5.95;;
28373;SDS011;15616;40.148;-102.718;2023-03-01T15:05:32;58.65;;;5.40;;
28373;SDS011;15616;40.148;-102.718;2023-03-01T15:07:59;44.63;;;5.55;;
28373;SDS011;15616;40.148;-102.718;2023-03-01T15:10:31;52.67;;;5.80;;
28373;SDS011;15616;40.148;-102.718;2023-03-01T15:15:49;41.67;;;5.13;;
28373;SDS011;15616;40.148;-102.718;2023-03-01T15:18:20;52.10;;;5.57;;
28373;SDS011;15616;40.148;-102.718;2023-03-01T15:20:50;37.60;;;4.90;;
28373;SDS011;15616;40.148;-102.718;2023-03-01T15:25:49;43.90;;;5.03;;
28373;SDS011;15616;40.148;-102.718;2023-03-01T15:28:21;46.63;;;5.85;;
28373;SDS011;15616;40.148;-102.718;2023-03-01T15:31:39;39.35;;;4.88;;
28373;SDS011;15616;40.148;-102.718;2023-03-01T15:36:45;33.50;;;4.00;;
28373;SDS011;15616;40.148;-102.718;2023-03-01T15:39:32;37.13;;;4.40;;
28373;SDS011;15616;40.148;-102.718;2023-03-01T15:42:09;36.55;;;4.57;;
28373;SDS011;15616;40.148;-102.718;2023-03-01T15:44:38;32.72;;;4.18;;
28373;SDS011;15616;40.148;-102.718;2023-03-01T15:47:23;37.85;;;3.95;;
28373;SDS011;15616;40.148;-102.718;2023-03-01T15:49:57;31.88;;;4.28;;
28373;SDS011;15616;40.148;-102.718;2023-03-01T15:52:25;36.15;;;3.90;;
28373;SDS011;15616;40.148;-102.718;2023-03-01T15:55:03;27.50;;;3.95;;
28373;SDS011;15616;40.148;-102.718;2023-03-01T15:57:31;32.15;;;4.03;;
28373;SDS011;15616;40.148;-102.718;2023-03-01T15:59:57;36.65;;;4.30;;
28373;SDS011;15616;40.148;-102.718;2023-03-01T16:02:23;33.80;;;4.30;;
28373;SDS011;15616;40.148;-102.718;2023-03-01T16:04:50;34.03;;;3.97;;
28373;SDS011;15616;40.148;-102.718;2023-03-01T16:07:16;29.20;;;4.15;;
28373;SDS011;15616;40.148;-102.718;2023-03-01T16:09:42;34.80;;;4.18;;
28373;SDS011;15616;40.148;-102.718;2023-03-01T16:12:14;19.38;;;3.30;;
28373;SDS011;15616;40.148;-102.718;2023-03-01T16:14:41;33.88;;;3.67;;
28373;SDS011;15616;40.148;-102.718;2023-03-01T16:17:07;23.77;;;2.85;;
28373;SDS011;15616;40.148;-102.718;2023-03-01T16:19:35;26.98;;;4.10;;
28373;SDS011;15616;40.148;-102.718;2023-03-01T16:22:03;24.05;;;3.33;;
28373;SDS011;15616;40.148;-102.718;2023-03-01T16:24:29;24.80;;;3.72;;
28373;SDS011;15616;40.148;-102.718;2023-03-01T16:26:55;26.15;;;3.10;;
28373;SDS011;15616;40.148;-102.718;2023-03-01T16:29:21;26.25;;;3.60;;
28373;SDS011;15616;40.148;-102.718;2023-03-01T16:31:47;23.65;;;3.45;;